Time;durP1;ratioP1;P1;durP2;ratioP2;P2;SDS_P1;SDS_P2;PMS_P1;PMS_P2;Temp;Humidity;BMP_temperature;BMP_pressure;BME280_temperature;BME280_humidity;BME280_pressure;Samples;Min_cycle;Max_cycle;Signal;HPM_P1;HPM_P2
2021/03/09 00:01:38;;;;;;;47.03;29.08;;;;;;;8.95;56.80;99667.88;5016862;28;20027;-75
2021/03/09 00:04:03;;;;;;;42.47;28.42;;;;;;;8.77;56.67;99613.53;5016854;28;20034;-75
2021/03/09 00:06:29;;;;;;;55.80;34.92;;;;;;;8.66;56.69;99605.16;5016731;28;20112;-74
2021/03/09 00:08:54;;;;;;;52.85;32.97;;;;;;;8.80;56.40;99634.28;5034367;28;20075;-75
2021/03/09 00:11:20;;;;;;;43.03;29.48;;;;;;;8.63;56.84;99626.53;5034365;28;20025;-74
2021/03/09 00:13:45;;;;;;;47.05;28.42;;;;;;;8.54;56.73;99616.00;5034590;28;20417;-75
2021/03/09 00:16:11;;;;;;;44.17;27.30;;;;;;;8.40;57.27;99594.75;5034237;28;20037;-75
2021/03/09 00:18:36;;;;;;;44.65;29.20;;;;;;;8.41;57.23;99601.69;5034164;28;20029;-75
2021/03/09 00:21:02;;;;;;;39.00;24.83;;;;;;;8.60;57.06;99643.47;5034332;28;20037;-75
2021/03/09 00:23:27;;;;;;;32.72;22.48;;;;;;;8.61;57.03;99642.47;5034121;28;20056;-75
2021/03/09 00:25:53;;;;;;;36.22;22.65;;;;;;;8.60;57.16;99638.22;5034311;28;20025;-75
2021/03/09 00:28:20;;;;;;;35.80;21.95;;;;;;;8.40;57.21;99616.63;5034090;28;20025;-74
2021/03/09 00:30:46;;;;;;;33.10;22.25;;;;;;;8.53;56.58;99626.69;5034095;28;20094;-74
2021/03/09 00:33:11;;;;;;;31.05;21.08;;;;;;;8.60;56.80;99635.56;5017943;28;20124;-75
2021/03/09 00:35:37;;;;;;;35.75;22.33;;;;;;;8.34;57.12;99595.41;5037737;28;20036;-75
2021/03/09 00:38:02;;;;;;;39.03;22.30;;;;;;;7.97;56.72;99534.31;5037951;28;20033;-75
2021/03/09 00:40:28;;;;;;;37.42;25.05;;;;;;;8.58;56.55;99648.06;5037610;28;20025;-75
2021/03/09 00:42:53;;;;;;;34.42;23.23;;;;;;;8.56;56.49;99652.69;5037619;28;20074;-75
2021/03/09 00:45:18;;;;;;;34.28;22.70;;;;;;;8.41;56.54;99615.66;5037617;28;20419;-75
2021/03/09 00:47:44;;;;;;;33.17;21.27;;;;;;;8.35;56.18;99603.16;5037680;28;20108;-75
2021/03/09 00:50:10;;;;;;;29.73;21.60;;;;;;;8.31;56.30;99599.16;5037479;28;20415;-75
2021/03/09 00:52:35;;;;;;;38.95;26.45;;;;;;;8.51;56.46;99623.41;5037445;28;20018;-75
2021/03/09 00:55:00;;;;;;;37.47;24.45;;;;;;;8.46;56.09;99621.25;5020019;28;20033;-75
2021/03/09 00:57:26;;;;;;;37.88;24.30;;;;;;;8.19;55.76;99587.31;5019862;28;20029;-76
2021/03/09 00:59:52;;;;;;;37.03;24.00;;;;;;;8.57;56.18;99634.09;5037467;28;20083;-75
2021/03/09 01:02:17;;;;;;;37.28;25.35;;;;;;;8.48;55.94;99621.09;5037356;28;20363;-75
2021/03/09 01:04:42;;;;;;;36.22;24.42;;;;;;;8.57;55.80;99636.72;5037288;28;20103;-74
2021/03/09 01:07:08;;;;;;;36.78;23.98;;;;;;;8.58;55.56;99640.19;5037365;28;20328;-75
2021/03/09 01:09:33;;;;;;;34.20;23.85;;;;;;;8.51;55.92;99639.19;5037253;28;20060;-75
2021/03/09 01:11:59;;;;;;;32.33;22.13;;;;;;;8.32;55.65;99607.88;5019532;28;20355;-74
2021/03/09 01:14:24;;;;;;;35.50;21.05;;;;;;;8.51;55.72;99641.81;5037044;28;20101;-74
2021/03/09 01:16:49;;;;;;;30.75;21.85;;;;;;;8.40;55.71;99623.72;5019570;28;20029;-74
2021/03/09 01:19:15;;;;;;;32.63;22.23;;;;;;;8.44;55.49;99635.56;5037097;28;20033;-75
2021/03/09 01:21:40;;;;;;;37.47;22.65;;;;;;;8.13;55.88;99588.75;5037014;28;20100;-74
2021/03/09 01:24:06;;;;;;;32.08;22.00;;;;;;;8.36;55.96;99625.00;5037005;28;20026;-77
2021/03/09 01:26:32;;;;;;;30.75;21.75;;;;;;;8.01;56.03;99570.81;5036957;28;20029;-74
2021/03/09 01:28:57;;;;;;;32.28;22.27;;;;;;;8.40;55.87;99632.41;5037000;28;20029;-75
2021/03/09 01:31:22;;;;;;;36.42;22.63;;;;;;;8.32;55.98;99631.56;5036731;28;20104;-75
2021/03/09 01:33:48;;;;;;;35.42;22.88;;;;;;;8.25;56.67;99640.09;5019223;28;20040;-76
2021/03/09 01:36:13;;;;;;;30.45;19.65;;;;;;;8.21;55.98;99644.03;5036718;28;20060;-75
2021/03/09 01:38:39;;;;;;;29.45;18.70;;;;;;;7.82;56.41;99600.81;5036584;28;20032;-74
2021/03/09 01:41:04;;;;;;;28.05;18.95;;;;;;;8.08;56.61;99643.63;5036479;28;20052;-75
2021/03/09 01:43:31;;;;;;;26.85;18.65;;;;;;;7.53;56.50;99569.66;5018933;28;20035;-75
2021/03/09 01:45:58;;;;;;;23.60;16.60;;;;;;;7.78;57.13;99612.63;5035713;28;20320;-75
2021/03/09 01:48:31;;;;;;;25.25;16.83;;;;;;;7.87;57.17;99633.53;5036408;28;20032;-74
2021/03/09 01:50:56;;;;;;;25.25;17.15;;;;;;;7.77;56.42;99601.28;5036390;28;20115;-75
2021/03/09 01:53:22;;;;;;;24.85;16.27;;;;;;;8.08;56.72;99653.31;5036242;28;20465;-75
2021/03/09 01:55:47;;;;;;;23.25;16.60;;;;;;;7.94;56.70;99626.66;5036519;28;20029;-75
2021/03/09 01:58:15;;;;;;;25.00;16.45;;;;;;;8.04;56.74;99654.63;5018834;28;20110;-75
2021/03/09 02:00:42;;;;;;;23.08;16.10;;;;;;;7.53;56.95;99581.00;5036214;28;20028;-75
2021/03/09 02:03:07;;;;;;;19.15;15.18;;;;;;;7.62;56.50;99601.06;5036235;28;20029;-75
2021/03/09 02:05:33;;;;;;;23.38;15.85;;;;;;;7.84;57.35;99638.28;5036034;28;20087;-75
2021/03/09 02:07:59;;;;;;;24.30;16.35;;;;;;;7.84;56.75;99646.16;5018816;28;20095;-75
2021/03/09 02:10:26;;;;;;;27.42;17.02;;;;;;;7.37;57.12;99578.25;5036402;28;20029;-75
2021/03/09 02:13:28;;;;;;;24.38;16.70;;;;;;;7.81;57.02;99644.69;5036354;28;20360;-75
2021/03/09 02:16:05;;;;;;;24.95;16.80;;;;;;;7.75;57.55;99647.94;5035998;28;20033;-73
2021/03/09 02:18:36;;;;;;;26.13;18.02;;;;;;;7.68;56.98;99641.66;5035891;28;20346;-75
2021/03/09 02:21:41;;;;;;;27.92;19.52;;;;;;;7.22;57.11;99567.53;5035907;28;20033;-77
2021/03/09 02:24:13;;;;;;;24.55;17.70;;;;;;;7.71;57.20;99643.97;5035869;28;20068;-75
2021/03/09 02:27:08;;;;;;;23.48;17.00;;;;;;;7.73;57.17;99649.91;5035729;28;20431;-75
2021/03/09 02:29:39;;;;;;;23.92;16.38;;;;;;;7.65;57.25;99653.31;5035657;28;20029;-75
2021/03/09 02:32:09;;;;;;;23.65;15.63;;;;;;;7.56;56.50;99646.38;5035774;28;20029;-74
2021/03/09 02:34:45;;;;;;;21.15;16.05;;;;;;;7.44;56.88;99625.78;5035592;28;20045;-76
2021/03/09 02:37:14;;;;;;;22.10;15.38;;;;;;;7.52;56.80;99647.66;5035850;28;20423;-75
2021/03/09 02:39:43;;;;;;;19.35;14.38;;;;;;;7.62;56.30;99653.63;5035456;28;20033;-75
2021/03/09 02:42:12;;;;;;;21.60;15.93;;;;;;;7.72;56.62;99664.03;5035417;28;20395;-76
2021/03/09 02:44:40;;;;;;;18.20;13.02;;;;;;;7.62;56.56;99661.50;5001478;28;20047;-76
2021/03/09 02:47:06;;;;;;;23.75;14.93;;;;;;;7.73;55.79;99659.59;5017840;28;20432;-76
2021/03/09 02:49:35;;;;;;;17.48;13.13;;;;;;;7.72;56.04;99664.03;5035132;28;20029;-75
2021/03/09 02:52:03;;;;;;;19.02;14.02;;;;;;;7.67;55.89;99661.03;5035267;28;20036;-76
2021/03/09 02:54:30;;;;;;;18.23;13.63;;;;;;;7.47;56.51;99657.00;5017856;28;20052;-75
2021/03/09 02:56:58;;;;;;;21.38;14.45;;;;;;;7.60;55.89;99673.97;5035155;28;20033;-76
2021/03/09 02:59:25;;;;;;;19.35;13.52;;;;;;;7.56;56.53;99675.28;5035192;28;20049;-75
2021/03/09 03:01:52;;;;;;;18.38;14.18;;;;;;;7.29;56.65;99641.25;5035271;28;20025;-76
2021/03/09 03:04:19;;;;;;;18.70;13.60;;;;;;;7.53;56.52;99675.56;5034951;28;20056;-75
2021/03/09 03:06:46;;;;;;;20.95;14.68;;;;;;;7.67;56.11;99670.72;5034908;28;20450;-76
2021/03/09 03:09:16;;;;;;;24.20;15.35;;;;;;;7.36;55.68;99650.16;5035032;28;20029;-75
2021/03/09 03:11:44;;;;;;;23.42;14.20;;;;;;;7.47;55.76;99681.44;5034962;28;20037;-76
2021/03/09 03:14:11;;;;;;;20.45;14.15;;;;;;;7.30;56.24;99658.66;5035015;28;20079;-75
2021/03/09 03:16:38;;;;;;;27.85;17.25;;;;;;;7.43;56.13;99695.88;5035360;28;20057;-75
2021/03/09 03:19:06;;;;;;;30.10;18.10;;;;;;;7.41;56.15;99699.59;5034956;28;20033;-77
2021/03/09 03:21:34;;;;;;;22.77;15.65;;;;;;;7.09;56.28;99648.50;5034762;28;20033;-75
2021/03/09 03:24:01;;;;;;;27.02;17.63;;;;;;;7.27;56.05;99691.31;5017300;28;20116;-75
2021/03/09 03:26:28;;;;;;;25.83;17.83;;;;;;;6.50;56.48;99566.00;5034726;28;20087;-75
2021/03/09 03:28:55;;;;;;;24.33;16.40;;;;;;;7.05;56.20;99657.66;5017253;28;20465;-76
2021/03/09 03:31:20;;;;;;;23.60;15.88;;;;;;;7.26;56.32;99689.66;5034597;28;20112;-75
2021/03/09 03:33:48;;;;;;;23.45;15.30;;;;;;;7.12;56.08;99692.00;5034509;28;20036;-75
2021/03/09 03:36:13;;;;;;;19.55;15.48;;;;;;;7.14;56.58;99693.50;5034667;28;20097;-75
2021/03/09 03:38:40;;;;;;;21.60;14.43;;;;;;;7.11;56.13;99700.88;5017225;28;20116;-75
2021/03/09 03:41:08;;;;;;;18.93;13.87;;;;;;;7.07;56.18;99702.13;5017022;28;20443;-75
2021/03/09 03:43:34;;;;;;;20.90;15.35;;;;;;;6.92;56.36;99689.56;5034602;28;20052;-75
2021/03/09 03:46:00;;;;;;;23.50;15.77;;;;;;;7.04;56.41;99711.13;5017128;28;20443;-74
2021/03/09 03:48:26;;;;;;;48.75;28.00;;;;;;;6.99;56.27;99714.22;5034313;28;20057;-75
2021/03/09 03:50:54;;;;;;;28.77;17.45;;;;;;;6.95;56.31;99707.63;5034572;28;20416;-75
2021/03/09 03:53:25;;;;;;;23.83;17.13;;;;;;;6.87;56.16;99689.19;5034514;28;20025;-75
2021/03/09 03:56:24;;;;;;;24.63;16.75;;;;;;;6.80;56.42;99698.63;5034675;28;20379;-75
2021/03/09 03:59:05;;;;;;;40.40;25.17;;;;;;;6.84;56.50;99714.91;5029398;28;20068;-74
2021/03/09 04:01:32;;;;;;;51.35;29.88;;;;;;;6.81;56.73;99710.78;5034466;28;20371;-74
2021/03/09 04:04:04;;;;;;;45.70;28.30;;;;;;;6.52;56.40;99658.50;5034414;28;20041;-76
2021/03/09 04:06:30;;;;;;;35.97;22.25;;;;;;;6.73;56.55;99702.81;5034430;28;20064;-73
2021/03/09 04:08:59;;;;;;;29.20;20.00;;;;;;;6.73;56.26;99707.25;5036958;28;20060;-75
2021/03/09 04:11:26;;;;;;;34.00;20.87;;;;;;;6.72;56.39;99706.44;5038064;28;20029;-76
2021/03/09 04:13:52;;;;;;;29.23;19.17;;;;;;;6.72;56.47;99702.97;5038339;28;20029;-76
2021/03/09 04:16:19;;;;;;;28.63;18.97;;;;;;;6.71;56.54;99704.78;5038162;28;20029;-75
2021/03/09 04:18:46;;;;;;;24.25;17.00;;;;;;;6.72;56.16;99708.22;5038047;28;20439;-75
2021/03/09 04:21:13;;;;;;;24.50;16.50;;;;;;;6.42;56.49;99670.84;5020990;28;20351;-75
2021/03/09 04:23:38;;;;;;;23.13;15.38;;;;;;;6.66;56.25;99713.06;5038523;28;20339;-76
2021/03/09 04:26:05;;;;;;;22.57;16.70;;;;;;;6.66;56.82;99720.09;5038051;28;20033;-75
2021/03/09 04:28:32;;;;;;;25.63;16.27;;;;;;;6.64;56.10;99715.00;5037969;28;20446;-75
2021/03/09 04:30:59;;;;;;;28.15;18.35;;;;;;;6.64;56.47;99719.44;5037927;28;20436;-76
2021/03/09 04:33:28;;;;;;;39.22;23.45;;;;;;;6.56;56.41;99707.06;5037791;28;20355;-75
2021/03/09 04:35:57;;;;;;;34.17;22.40;;;;;;;6.49;56.53;99694.69;5037861;28;20025;-75
2021/03/09 04:38:23;;;;;;;34.40;21.48;;;;;;;6.38;56.63;99687.84;5037807;28;20164;-75
2021/03/09 04:40:49;;;;;;;34.13;21.93;;;;;;;6.28;56.42;99672.19;5037534;28;20120;-75
2021/03/09 04:43:15;;;;;;;37.55;23.40;;;;;;;6.51;56.47;99719.78;5037791;28;20029;-75
2021/03/09 04:45:40;;;;;;;33.40;23.20;;;;;;;6.38;56.25;99703.59;5037638;28;20151;-75
2021/03/09 04:48:06;;;;;;;33.38;22.45;;;;;;;6.42;56.25;99699.69;5020107;28;20087;-75
2021/03/09 04:50:35;;;;;;;33.33;22.88;;;;;;;6.48;56.24;99722.72;5037560;28;20443;-76
2021/03/09 04:53:00;;;;;;;36.57;25.70;;;;;;;6.29;56.12;99684.31;5037590;28;20029;-75
2021/03/09 04:55:27;;;;;;;32.63;22.57;;;;;;;6.03;56.13;99657.16;5037345;28;20036;-74
2021/03/09 04:57:52;;;;;;;30.40;21.03;;;;;;;6.01;56.23;99654.69;5037467;28;20031;-75
2021/03/09 05:00:23;;;;;;;27.30;19.90;;;;;;;6.42;56.04;99725.91;5019956;28;20112;-76
2021/03/09 05:02:50;;;;;;;30.10;22.00;;;;;;;6.42;56.12;99735.59;5019690;28;20029;-75
2021/03/09 05:05:18;;;;;;;34.13;24.00;;;;;;;6.42;56.00;99731.16;5037336;28;20436;-74
2021/03/09 05:07:44;;;;;;;32.77;21.67;;;;;;;5.93;56.33;99654.56;5037118;28;20029;-75
2021/03/09 05:10:10;;;;;;;33.67;20.90;;;;;;;6.38;56.25;99741.13;5037136;28;20360;-76
2021/03/09 05:12:41;;;;;;;35.53;22.70;;;;;;;6.41;56.31;99736.56;5037278;28;20112;-75
2021/03/09 05:15:07;;;;;;;34.77;22.60;;;;;;;5.93;56.25;99645.88;5037247;28;20108;-75
2021/03/09 05:17:33;;;;;;;38.83;25.93;;;;;;;6.46;56.58;99740.41;5037044;28;20410;-75
2021/03/09 05:19:58;;;;;;;39.93;27.10;;;;;;;6.32;55.91;99715.50;5035717;28;20053;-74
2021/03/09 05:22:23;;;;;;;37.73;25.87;;;;;;;5.79;56.05;99627.97;5019446;28;20418;-75
2021/03/09 05:24:49;;;;;;;36.37;22.90;;;;;;;6.62;55.69;99753.69;5019326;28;20029;-76
2021/03/09 05:27:15;;;;;;;39.93;21.80;;;;;;;6.22;55.78;99683.25;5019034;28;20040;-76
2021/03/09 05:29:40;;;;;;;32.77;22.57;;;;;;;6.77;55.70;99758.47;5036912;28;20389;-75
2021/03/09 05:32:06;;;;;;;37.43;25.80;;;;;;;6.75;55.79;99755.97;5036915;28;20052;-76
2021/03/09 05:34:31;;;;;;;41.83;29.50;;;;;;;6.74;55.92;99756.13;5036697;28;20033;-77
2021/03/09 05:36:57;;;;;;;51.23;33.37;;;;;;;6.71;55.92;99756.44;5036836;28;20026;-76
2021/03/09 05:39:22;;;;;;;73.20;40.83;;;;;;;6.72;55.64;99747.59;5036789;28;20394;-75
2021/03/09 05:41:49;;;;;;;67.43;39.57;;;;;;;6.72;55.86;99753.66;5036071;28;20034;-76
2021/03/09 05:44:14;;;;;;;59.75;39.35;;;;;;;6.59;55.35;99719.88;5019062;28;20454;-76
2021/03/09 05:46:40;;;;;;;58.30;39.17;;;;;;;6.46;55.40;99700.22;5036434;28;20057;-76
2021/03/09 05:49:07;;;;;;;71.10;40.40;;;;;;;6.85;55.61;99754.13;5036607;28;20052;-76
2021/03/09 05:51:32;;;;;;;80.30;47.40;;;;;;;6.36;55.50;99680.13;5018664;28;20026;-76
2021/03/09 05:53:58;;;;;;;66.72;44.47;;;;;;;6.78;55.29;99757.47;5036494;28;20027;-75
2021/03/09 05:56:24;;;;;;;66.43;44.07;;;;;;;6.76;55.29;99730.56;5036280;28;20359;-75
2021/03/09 05:58:51;;;;;;;72.10;45.70;;;;;;;6.53;55.06;99696.03;5036239;28;20083;-75
2021/03/09 06:01:17;;;;;;;67.67;44.77;;;;;;;6.91;54.64;99748.28;5036153;28;20025;-77
2021/03/09 06:03:42;;;;;;;73.23;46.43;;;;;;;6.90;54.61;99746.63;5035892;28;20021;-77
2021/03/09 06:06:08;;;;;;;68.80;45.60;;;;;;;6.75;54.72;99727.13;5036034;28;20351;-76
2021/03/09 06:08:33;;;;;;;67.40;43.93;;;;;;;6.90;55.10;99753.66;5036035;28;20029;-75
2021/03/09 06:11:19;;;;;;;62.90;43.10;;;;;;;7.03;54.82;99776.94;5035876;28;20021;-75
2021/03/09 06:13:45;;;;;;;59.50;39.00;;;;;;;7.10;55.03;99770.09;5035895;28;20037;-75
2021/03/09 06:16:10;;;;;;;55.93;38.10;;;;;;;6.91;54.90;99764.03;5036089;28;20025;-75
2021/03/09 06:18:36;;;;;;;57.63;39.03;;;;;;;7.20;54.57;99783.97;5035764;28;20033;-75
2021/03/09 06:21:12;;;;;;;63.78;39.90;;;;;;;7.24;54.29;99778.28;5036116;28;20025;-76
2021/03/09 06:23:38;;;;;;;59.47;39.10;;;;;;;7.21;54.23;99765.44;5035676;28;20064;-76
2021/03/09 06:26:32;;;;;;;66.38;43.15;;;;;;;6.75;54.22;99755.16;5018228;28;20030;-76
2021/03/09 06:29:13;;;;;;;72.47;42.37;;;;;;;7.15;54.69;99771.28;5035744;28;20164;-76
2021/03/09 06:31:41;;;;;;;67.53;43.95;;;;;;;7.21;54.06;99769.88;5017474;28;20025;-76
2021/03/09 06:34:26;;;;;;;75.20;47.25;;;;;;;7.27;54.44;99785.84;5018088;28;20032;-76
2021/03/09 06:37:11;;;;;;;76.75;49.20;;;;;;;7.39;54.24;99804.00;5035433;28;20336;-76
2021/03/09 06:39:56;;;;;;;73.57;47.22;;;;;;;7.50;53.98;99815.13;5017945;28;20037;-76
2021/03/09 06:42:25;;;;;;;63.60;43.80;;;;;;;7.62;54.40;99824.44;5035363;28;20039;-76
2021/03/09 06:45:07;;;;;;;48.17;33.55;;;;;;;7.74;52.75;99824.19;5021405;28;20348;-77
2021/03/09 06:47:50;;;;;;;43.80;27.42;;;;;;;7.62;51.92;99792.06;5020076;28;20112;-76
2021/03/09 06:50:20;;;;;;;33.65;22.02;;;;;;;7.87;51.99;99814.91;5015418;28;20030;-76
2021/03/09 06:52:59;;;;;;;29.85;21.33;;;;;;;7.50;51.23;99733.69;5022484;28;20025;-78
2021/03/09 06:55:43;;;;;;;32.00;19.55;;;;;;;7.38;48.11;99713.88;5035076;28;20371;-81
2021/03/09 06:58:12;;;;;;;31.65;20.30;;;;;;;7.79;50.46;99758.84;5027491;28;20095;-78
2021/03/09 07:00:41;;;;;;;29.55;19.60;;;;;;;8.27;49.82;99818.78;5005968;28;20014;-77
2021/03/09 07:03:33;;;;;;;29.05;18.65;;;;;;;8.42;48.63;99817.25;5028117;28;20113;-81
2021/03/09 07:05:59;;;;;;;27.75;19.65;;;;;;;8.52;49.20;99798.72;5023926;28;20100;-81
2021/03/09 07:08:25;;;;;;;27.52;18.50;;;;;;;8.52;48.39;99769.78;5015083;28;20042;-79
2021/03/09 07:10:51;;;;;;;29.85;19.75;;;;;;;8.89;48.21;99812.34;5014859;28;20400;-79
2021/03/09 07:13:22;;;;;;;28.52;18.88;;;;;;;8.78;47.71;99769.69;5017878;28;20045;-76
2021/03/09 07:15:48;;;;;;;29.52;19.63;;;;;;;9.13;47.54;99816.84;5035082;28;20324;-78
2021/03/09 07:18:19;;;;;;;32.08;22.20;;;;;;;9.22;47.18;99810.63;5029343;28;20034;-81
2021/03/09 07:20:46;;;;;;;36.00;26.33;;;;;;;9.28;46.81;99814.41;5010799;28;20419;-76
2021/03/09 07:23:16;;;;;;;30.85;21.25;;;;;;;8.98;46.29;99764.97;5034818;28;20430;-79
2021/03/09 07:25:42;;;;;;;31.55;20.25;;;;;;;9.29;46.77;99818.69;5029463;28;20021;-81
2021/03/09 07:28:10;;;;;;;31.08;21.00;;;;;;;9.22;46.42;99791.34;5032113;28;20550;-83
2021/03/09 07:30:40;;;;;;;38.88;24.90;;;;;;;9.43;46.78;99822.50;5013246;28;20021;-80
2021/03/09 07:33:07;;;;;;;37.28;24.67;;;;;;;9.51;46.64;99823.31;5033553;28;20037;-82
2021/03/09 07:35:33;;;;;;;38.33;23.45;;;;;;;9.29;46.14;99776.53;5033907;28;20029;-80
2021/03/09 07:37:59;;;;;;;38.35;25.02;;;;;;;9.48;45.86;99801.72;5031518;28;20029;-77
2021/03/09 07:40:28;;;;;;;33.58;22.45;;;;;;;9.27;46.15;99770.59;5017037;28;20021;-77
2021/03/09 07:42:54;;;;;;;41.22;25.63;;;;;;;9.77;45.92;99823.19;5013273;28;20474;-75
2021/03/09 07:45:24;;;;;;;40.78;26.45;;;;;;;9.84;45.99;99823.34;5032839;28;20041;-77
2021/03/09 07:48:03;;;;;;;41.03;27.52;;;;;;;9.71;45.71;99797.47;5029020;28;20105;-75
2021/03/09 07:50:41;;;;;;;37.25;24.00;;;;;;;9.80;45.30;99800.94;5008941;28;20038;-77
2021/03/09 07:53:13;;;;;;;43.40;26.48;;;;;;;10.05;45.77;99821.00;5031871;28;20056;-76
2021/03/09 07:55:40;;;;;;;33.67;22.35;;;;;;;10.07;45.42;99832.19;5010496;28;20021;-76
2021/03/09 07:58:15;;;;;;;33.70;22.83;;;;;;;10.19;44.50;99816.84;5012137;28;20143;-79
2021/03/09 08:00:48;;;;;;;33.47;23.48;;;;;;;10.29;44.84;99814.03;5007836;28;20060;-80
2021/03/09 08:03:25;;;;;;;36.80;23.98;;;;;;;10.08;44.53;99785.53;5014506;28;20094;-75
2021/03/09 08:05:55;;;;;;;34.40;23.38;;;;;;;10.39;44.79;99812.03;5015720;28;20358;-77
2021/03/09 08:08:46;;;;;;;32.17;21.77;;;;;;;10.55;43.56;99817.28;5034253;28;20037;-80
2021/03/09 08:11:14;;;;;;;31.77;20.48;;;;;;;10.57;43.63;99836.41;5024260;28;20118;-78
2021/03/09 08:13:41;;;;;;;30.58;18.65;;;;;;;10.55;43.18;99827.00;5017068;28;20452;-77
2021/03/09 08:16:26;;;;;;;22.92;16.25;;;;;;;10.67;42.45;99831.75;5028077;28;20096;-76
2021/03/09 08:18:58;;;;;;;23.13;16.35;;;;;;;10.67;42.99;99815.09;5031663;28;20035;-78
2021/03/09 08:21:39;;;;;;;20.55;12.73;;;;;;;10.78;40.76;99809.41;5032346;28;20029;-76
2021/03/09 08:24:06;;;;;;;16.50;11.77;;;;;;;10.82;41.95;99821.28;5032083;28;20029;-76
2021/03/09 08:26:31;;;;;;;16.35;11.20;;;;;;;10.85;41.80;99804.25;5032671;28;20037;-77
2021/03/09 08:28:57;;;;;;;18.10;11.93;;;;;;;10.46;41.33;99739.13;5014210;28;20037;-77
2021/03/09 08:31:26;;;;;;;15.15;10.43;;;;;;;10.85;40.83;99794.53;5028689;28;20024;-81
2021/03/09 08:34:07;;;;;;;16.17;10.40;;;;;;;10.99;40.49;99806.16;5012205;28;20040;-76
2021/03/09 08:36:35;;;;;;;18.08;11.18;;;;;;;10.99;40.60;99806.16;5032014;28;20087;-77
2021/03/09 08:39:18;;;;;;;16.25;11.63;;;;;;;11.02;40.50;99813.75;5016416;28;20075;-77
2021/03/09 08:41:44;;;;;;;20.08;12.18;;;;;;;11.04;39.81;99811.75;5022981;28;20099;-79
2021/03/09 08:44:22;;;;;;;19.40;13.00;;;;;;;11.11;39.71;99805.59;5018881;28;20497;-77
2021/03/09 08:47:11;;;;;;;18.13;13.73;;;;;;;11.04;39.49;99790.63;5035465;28;20446;-79
2021/03/09 08:49:36;;;;;;;18.35;13.40;;;;;;;11.38;39.93;99801.63;4998860;28;20026;-77
2021/03/09 08:52:08;;;;;;;17.67;12.05;;;;;;;10.71;39.29;99663.22;5014764;28;20037;-77
2021/03/09 08:54:45;;;;;;;12.55;9.10;;;;;;;11.40;36.58;99744.13;5028564;28;20484;-77
2021/03/09 08:57:20;;;;;;;16.52;10.73;;;;;;;11.90;34.79;99800.91;5037262;28;20136;-77
2021/03/09 09:00:07;;;;;;;14.63;10.30;;;;;;;11.92;36.16;99806.03;5019376;28;20040;-77
2021/03/09 09:02:38;;;;;;;16.45;9.77;;;;;;;11.99;36.46;99807.78;5027166;28;20024;-75
2021/03/09 09:05:06;;;;;;;12.63;8.65;;;;;;;12.03;35.80;99802.94;5045183;28;20475;-77
2021/03/09 09:07:36;;;;;;;12.80;9.68;;;;;;;11.90;35.11;99766.53;5036580;28;20088;-76
2021/03/09 09:10:14;;;;;;;14.48;9.32;;;;;;;12.10;34.59;99798.56;5037586;28;20331;-77
2021/03/09 09:12:44;;;;;;;16.13;10.65;;;;;;;12.26;35.04;99800.22;5036826;28;20041;-77
2021/03/09 09:15:15;;;;;;;14.43;8.32;;;;;;;12.34;33.88;99805.41;5036831;28;20485;-76
2021/03/09 09:17:46;;;;;;;12.02;8.65;;;;;;;12.49;34.85;99802.75;5035691;28;20060;-76
2021/03/09 09:20:33;;;;;;;16.13;8.65;;;;;;;12.26;34.09;99756.03;5018739;28;20064;-76
2021/03/09 09:23:13;;;;;;;10.90;8.18;;;;;;;12.84;32.96;99806.47;5036120;28;20037;-76
2021/03/09 09:25:43;;;;;;;11.55;8.38;;;;;;;12.72;32.83;99777.00;5036560;28;20428;-76
2021/03/09 09:28:20;;;;;;;13.38;9.00;;;;;;;12.73;32.85;99787.41;5036244;28;20029;-77
2021/03/09 09:30:47;;;;;;;10.57;7.85;;;;;;;12.22;33.30;99714.22;5035586;28;20037;-76
2021/03/09 09:33:13;;;;;;;11.00;8.32;;;;;;;12.16;33.42;99720.25;5036177;28;20026;-76
2021/03/09 09:35:40;;;;;;;12.63;8.05;;;;;;;12.58;33.07;99791.88;5037679;28;20037;-77
2021/03/09 09:38:08;;;;;;;11.30;8.15;;;;;;;12.55;32.88;99786.13;5036044;28;20344;-77
2021/03/09 09:40:36;;;;;;;11.98;8.68;;;;;;;12.69;32.14;99783.50;5036024;28;20029;-76
2021/03/09 09:43:10;;;;;;;11.10;8.60;;;;;;;12.92;32.53;99783.34;5018261;28;20229;-77
2021/03/09 09:45:55;;;;;;;16.98;8.80;;;;;;;13.13;30.75;99779.06;5033703;28;20091;-76
2021/03/09 09:48:22;;;;;;;9.25;7.05;;;;;;;13.33;31.71;99785.41;5016336;28;20025;-76
2021/03/09 09:50:53;;;;;;;14.13;8.32;;;;;;;13.08;29.92;99716.00;5031998;28;20030;-77
2021/03/09 09:53:29;;;;;;;9.48;6.95;;;;;;;13.58;30.28;99781.38;5012493;28;20026;-77
2021/03/09 09:55:55;;;;;;;10.85;8.02;;;;;;;13.42;30.55;99727.78;5036680;28;20523;-75
2021/03/09 09:58:21;;;;;;;12.95;7.60;;;;;;;13.52;30.35;99721.13;5016294;28;20056;-77
2021/03/09 10:00:54;;;;;;;16.73;8.98;;;;;;;13.91;27.79;99752.44;5034061;28;20029;-80
2021/03/09 10:03:20;;;;;;;10.75;8.13;;;;;;;14.07;30.18;99777.84;5031801;28;20116;-78
2021/03/09 10:05:46;;;;;;;10.38;7.10;;;;;;;14.14;30.44;99777.94;5034357;28;20112;-79
2021/03/09 10:08:32;;;;;;;12.23;7.47;;;;;;;14.17;29.92;99788.97;5035178;28;20025;-75
2021/03/09 10:11:00;;;;;;;12.68;7.75;;;;;;;13.93;29.54;99745.09;5026653;28;20128;-77
2021/03/09 10:13:25;;;;;;;10.18;7.15;;;;;;;13.57;29.75;99686.88;5033255;28;20033;-77
2021/03/09 10:15:51;;;;;;;14.55;7.93;;;;;;;13.92;29.92;99754.06;5036045;28;20401;-77
2021/03/09 10:18:28;;;;;;;12.02;8.23;;;;;;;14.22;29.86;99796.34;5033954;28;20032;-77
2021/03/09 10:21:15;;;;;;;19.27;9.15;;;;;;;13.93;29.88;99744.28;5032392;28;20025;-77
2021/03/09 10:23:51;;;;;;;8.90;7.43;;;;;;;13.47;28.82;99706.81;5013228;28;20033;-77
2021/03/09 10:26:28;;;;;;;10.20;7.60;;;;;;;13.98;29.89;99795.78;5033324;28;20025;-78
2021/03/09 10:29:04;;;;;;;13.63;7.78;;;;;;;14.03;29.63;99803.16;5030264;28;20032;-79
2021/03/09 10:31:42;;;;;;;13.75;8.38;;;;;;;13.59;29.51;99710.56;5008707;28;20037;-80
2021/03/09 10:34:07;;;;;;;9.55;8.20;;;;;;;13.63;30.07;99723.25;5028901;28;20029;-76
2021/03/09 10:36:50;;;;;;;11.60;7.65;;;;;;;13.93;29.45;99774.28;5026880;28;20033;-79
2021/03/09 10:39:16;;;;;;;11.75;7.68;;;;;;;14.01;30.21;99778.63;5030007;28;20432;-76
2021/03/09 10:41:42;;;;;;;10.80;6.97;;;;;;;13.28;30.30;99676.44;5023201;28;20040;-78
2021/03/09 10:44:27;;;;;;;14.73;7.88;;;;;;;13.97;28.47;99775.53;5010912;28;20340;-77
2021/03/09 10:46:54;;;;;;;11.13;8.10;;;;;;;13.90;30.12;99766.72;5011652;28;20401;-78
2021/03/09 10:49:19;;;;;;;15.02;8.13;;;;;;;13.99;29.88;99772.69;5014898;28;20420;-78
2021/03/09 10:51:44;;;;;;;11.25;7.20;;;;;;;13.77;29.88;99752.53;5000629;28;20188;-79
2021/03/09 10:54:10;;;;;;;14.02;7.85;;;;;;;13.92;30.06;99767.34;5020130;28;20029;-77
2021/03/09 10:56:36;;;;;;;14.38;8.82;;;;;;;13.76;30.08;99754.38;5016318;28;20034;-77
2021/03/09 10:59:02;;;;;;;12.23;8.02;;;;;;;13.70;30.05;99728.59;5029018;28;20117;-79
2021/03/09 11:01:30;;;;;;;14.18;9.27;;;;;;;13.92;30.20;99767.34;5020495;28;20406;-79
2021/03/09 11:03:55;;;;;;;14.32;8.40;;;;;;;13.36;30.09;99686.91;4992599;28;20030;-80
2021/03/09 11:06:21;;;;;;;11.68;7.70;;;;;;;13.65;30.22;99723.88;5013984;28;20416;-79
2021/03/09 11:08:46;;;;;;;10.68;7.53;;;;;;;13.89;30.06;99754.47;5012681;28;20034;-79
2021/03/09 11:11:11;;;;;;;14.68;8.45;;;;;;;13.91;30.08;99757.75;5014140;28;20030;-77
2021/03/09 11:13:37;;;;;;;14.38;8.27;;;;;;;13.72;30.20;99729.25;5013912;28;20101;-80
2021/03/09 11:16:02;;;;;;;11.68;7.60;;;;;;;13.89;29.98;99741.19;4996348;28;20037;-79
2021/03/09 11:18:28;;;;;;;14.02;9.35;;;;;;;13.66;29.80;99714.09;5014815;28;20034;-79
2021/03/09 11:20:53;;;;;;;11.63;8.60;;;;;;;13.60;29.81;99696.28;5015105;28;20052;-77
2021/03/09 11:23:19;;;;;;;11.80;7.78;;;;;;;13.89;29.83;99727.09;5013162;28;20022;-76
2021/03/09 11:25:44;;;;;;;13.52;9.60;;;;;;;13.94;29.82;99722.84;4997320;28;20437;-76
2021/03/09 11:28:09;;;;;;;11.27;8.95;;;;;;;14.23;29.61;99729.78;4996509;28;20432;-76
2021/03/09 11:30:35;;;;;;;12.18;7.20;;;;;;;14.17;29.54;99701.34;5011436;28;20563;-76
2021/03/09 11:33:00;;;;;;;10.60;7.90;;;;;;;14.44;29.47;99725.41;5012302;28;20458;-78
2021/03/09 11:35:26;;;;;;;14.48;8.20;;;;;;;14.04;29.17;99663.25;5010301;28;20038;-81